Terminal Aerodrome Forecast
Issued by NWS Louisville, KY

Home | Current Version | Previous Version | Text Only | Print | Product List | Glossary On
Versions: 1 2 3 4 5 6 7 8 9 10 11 12 13 14 15 16 17 18 19 20 21 22 23
322
FTUS43 KLMK 011720
TAFSDF
TAF
KSDF 011720Z 0118/0224 19006KT 6SM BR VCSH SCT012 BKN018
     FM012100 22005KT P6SM BKN022
     FM020100 VRB04KT P6SM BKN030
     FM020700 VRB03KT 5SM BR BKN015
      TEMPO 0209/0213 2SM BR BKN008
     FM021500 27005KT P6SM SCT015 BKN025=

USA.gov is the U.S. government's official web portal to all federal, state and local government web resources and services.